Andrews, North Carolina
Current Conditions -  °F | °C
As of 1:35 PM on Sunday 23 Nov 2014 (Local Time) from KRHP Reporting Station
Drizzle Drizzle  
Wind Chill: 58°   Ceiling: 3300
Heat Index: 58°   Visibility: 10mi
Dew Point: 54°   Wind: 7mph
Humidity: 87%   Direction: 340°NNW
Pressure: 29.83"   Gusts: NA
Location:  35.2°N, 83.82°W
Report Text: KRHP 231835Z AUTO 34006KT 10SM -DZ SCT025 BKN033 OVC065 15/12 A2983 RMK AO2 P0002 T01450124
Loading
Personal Weather Stations






























Interactive Weather Map New forecast layout! Learn more

10-Day Weather Forecast

Advertisements
Track Severe Weather on mobile